createdAt,value
2018-05-29T00:01:47.927Z,80.70
2018-05-29T00:04:16.300Z,79.90
2018-05-29T00:06:44.731Z,81.00
2018-05-29T00:09:13.183Z,80.10
2018-05-29T00:11:41.583Z,79.10
2018-05-29T00:14:10.013Z,79.60
2018-05-29T00:16:38.391Z,79.50
2018-05-29T00:19:07.539Z,78.80
2018-05-29T00:21:35.975Z,78.90
2018-05-29T00:24:04.408Z,79.40
2018-05-29T00:26:33.322Z,80.80
2018-05-29T00:29:01.891Z,80.20
2018-05-29T00:31:30.286Z,80.90
2018-05-29T00:33:58.670Z,82.80
2018-05-29T00:36:27.155Z,78.80
2018-05-29T00:38:55.621Z,77.10
2018-05-29T00:41:24.809Z,76.40
2018-05-29T00:43:53.237Z,76.40
2018-05-29T00:46:21.622Z,77.20
2018-05-29T00:48:50.049Z,76.90
2018-05-29T00:51:18.493Z,76.20
2018-05-29T00:53:46.888Z,76.20
2018-05-29T00:56:15.285Z,76.50
2018-05-29T00:58:43.711Z,76.80
2018-05-29T01:01:12.087Z,76.50
2018-05-29T01:03:40.495Z,76.00
2018-05-29T01:06:08.943Z,75.80
2018-05-29T01:08:37.379Z,76.90
2018-05-29T01:11:05.763Z,77.20
2018-05-29T01:13:34.229Z,77.70
2018-05-29T01:16:02.644Z,77.40
2018-05-29T01:18:31.031Z,77.30
2018-05-29T01:21:00.235Z,78.00
2018-05-29T01:23:29.379Z,78.40
2018-05-29T01:25:58.545Z,80.40
2018-05-29T01:28:27.007Z,80.50
2018-05-29T01:30:56.175Z,86.50
2018-05-29T01:33:24.596Z,86.50
2018-05-29T01:35:53.032Z,88.20
2018-05-29T01:38:21.442Z,86.70
2018-05-29T01:40:49.857Z,87.80
2018-05-29T01:43:18.295Z,87.30
2018-05-29T01:45:46.687Z,88.20
2018-05-29T01:48:15.840Z,88.70
2018-05-29T01:50:45.206Z,88.80
2018-05-29T01:53:13.603Z,88.30
2018-05-29T01:55:42.747Z,87.60
2018-05-29T01:58:11.196Z,87.50
2018-05-29T02:00:39.596Z,87.50
2018-05-29T02:03:08.056Z,88.90
2018-05-29T02:05:36.506Z,89.00
2018-05-29T02:08:04.953Z,90.50
2018-05-29T02:10:33.343Z,89.60
2018-05-29T02:13:01.806Z,87.20
2018-05-29T02:15:30.221Z,87.50
2018-05-29T02:17:58.603Z,86.30
2018-05-29T02:20:27.826Z,83.90
2018-05-29T02:22:56.282Z,84.00
2018-05-29T02:25:24.746Z,81.90
2018-05-29T02:27:53.159Z,88.30
2018-05-29T02:30:21.561Z,87.80
2018-05-29T02:32:49.946Z,86.90
2018-05-29T02:35:18.371Z,89.10
2018-05-29T02:37:46.765Z,90.50
2018-05-29T02:40:15.947Z,89.70
2018-05-29T02:42:45.141Z,90.40
2018-05-29T02:45:14.325Z,90.30
2018-05-29T02:47:42.736Z,90.30
2018-05-29T02:50:11.211Z,89.30
2018-05-29T02:52:39.637Z,87.60
2018-05-29T02:55:08.041Z,87.00
2018-05-29T02:57:37.263Z,86.00
2018-05-29T03:00:06.420Z,87.30
2018-05-29T03:02:34.813Z,86.60
2018-05-29T03:05:03.292Z,84.50
2018-05-29T03:07:31.673Z,85.00
2018-05-29T03:10:00.047Z,85.30
2018-05-29T03:12:28.479Z,85.50
2018-05-29T03:14:56.931Z,83.90
2018-05-29T03:17:25.375Z,83.60
2018-05-29T03:19:53.814Z,83.00
2018-05-29T03:22:22.211Z,82.00
2018-05-29T03:24:50.640Z,85.00
2018-05-29T03:27:19.083Z,84.30
2018-05-29T03:29:47.484Z,83.40
2018-05-29T03:32:15.863Z,83.50
2018-05-29T03:34:44.315Z,83.50
2018-05-29T03:37:12.697Z,83.60
2018-05-29T03:39:41.089Z,84.40
2018-05-29T03:42:09.512Z,83.60
2018-05-29T03:44:37.907Z,83.50
2018-05-29T03:47:06.295Z,83.90
2018-05-29T03:49:34.743Z,84.60
2018-05-29T03:52:03.149Z,86.20
2018-05-29T03:54:31.545Z,86.90
2018-05-29T03:57:00.018Z,88.30
2018-05-29T03:59:28.396Z,86.40
2018-05-29T04:01:56.784Z,86.90
2018-05-29T04:04:25.243Z,86.80
2018-05-29T04:06:53.635Z,87.90
2018-05-29T04:09:22.036Z,87.30
2018-05-29T04:11:51.316Z,87.80
2018-05-29T04:14:19.697Z,88.80
2018-05-29T04:16:48.101Z,88.60
2018-05-29T04:19:16.552Z,88.50
2018-05-29T04:21:44.944Z,88.50
2018-05-29T04:24:13.344Z,87.80
2018-05-29T04:26:41.781Z,87.90
2018-05-29T04:29:10.170Z,88.50
2018-05-29T04:31:38.560Z,87.90
2018-05-29T04:34:07.000Z,87.20
2018-05-29T04:36:35.394Z,87.70
2018-05-29T04:39:03.906Z,89.70
2018-05-29T04:41:32.343Z,89.60
2018-05-29T04:44:00.737Z,89.70
2018-05-29T04:46:29.895Z,90.20
2018-05-29T04:48:58.323Z,90.20
2018-05-29T04:51:26.707Z,89.80
2018-05-29T04:53:55.135Z,90.70
2018-05-29T04:56:23.599Z,90.60
2018-05-29T04:58:51.999Z,89.90
2018-05-29T05:01:20.393Z,89.70
2018-05-29T05:03:48.820Z,90.30
2018-05-29T05:06:17.980Z,90.50
2018-05-29T05:08:47.140Z,91.10
2018-05-29T05:11:15.584Z,91.10
2018-05-29T05:13:43.980Z,91.20
2018-05-29T05:16:13.132Z,90.80
2018-05-29T05:18:42.342Z,90.60
2018-05-29T05:21:11.536Z,90.70
2018-05-29T05:23:40.734Z,90.70
2018-05-29T05:26:09.899Z,91.10
2018-05-29T05:28:38.351Z,91.20
2018-05-29T05:31:06.757Z,91.20
2018-05-29T05:33:35.215Z,91.40
2018-05-29T05:36:03.696Z,91.80
2018-05-29T05:38:32.201Z,91.90
2018-05-29T05:41:00.616Z,91.40
2018-05-29T05:43:29.823Z,90.70
2018-05-29T05:45:58.970Z,90.90
2018-05-29T05:48:27.391Z,91.00
2018-05-29T05:50:56.593Z,90.90
2018-05-29T05:53:25.753Z,91.40
2018-05-29T05:55:54.200Z,91.40
2018-05-29T05:58:22.632Z,90.80
2018-05-29T06:00:51.814Z,90.00
2018-05-29T06:03:20.203Z,90.00
2018-05-29T06:05:48.643Z,90.00
2018-05-29T06:08:17.109Z,88.00
2018-05-29T06:10:46.247Z,86.80
2018-05-29T06:13:14.675Z,86.30
2018-05-29T06:15:43.095Z,87.80
2018-05-29T06:18:11.473Z,85.70
2018-05-29T06:20:39.925Z,86.00
2018-05-29T06:23:08.319Z,82.60
2018-05-29T06:25:36.767Z,81.90
2018-05-29T06:28:05.986Z,79.90
2018-05-29T06:30:34.374Z,80.00
2018-05-29T06:33:02.767Z,77.70
2018-05-29T06:35:31.225Z,75.80
2018-05-29T06:37:59.616Z,72.50
2018-05-29T06:40:28.012Z,74.30
2018-05-29T06:42:56.455Z,76.30
2018-05-29T06:45:24.865Z,77.70
2018-05-29T06:47:53.269Z,76.70
2018-05-29T06:50:21.720Z,75.10
2018-05-29T06:52:50.107Z,73.60
2018-05-29T06:55:18.488Z,72.90
2018-05-29T06:57:46.939Z,73.20
2018-05-29T07:00:15.327Z,73.20
2018-05-29T07:02:43.711Z,72.30
2018-05-29T07:05:12.160Z,71.70
2018-05-29T07:07:40.617Z,70.40
2018-05-29T07:10:08.994Z,68.00
2018-05-29T07:12:38.227Z,68.00
2018-05-29T07:15:06.622Z,68.10
2018-05-29T07:17:35.018Z,65.00
2018-05-29T07:20:03.459Z,66.60
2018-05-29T07:22:32.629Z,66.30
2018-05-29T07:25:01.052Z,66.30
2018-05-29T07:27:29.514Z,67.00
2018-05-29T07:29:58.689Z,66.10
2018-05-29T07:32:27.072Z,66.10
2018-05-29T07:34:55.499Z,65.80
2018-05-29T07:37:23.871Z,66.40
2018-05-29T07:39:52.259Z,65.00
2018-05-29T07:42:20.708Z,65.80
2018-05-29T07:44:50.018Z,67.80
2018-05-29T07:47:19.187Z,67.90
2018-05-29T07:49:47.620Z,67.50
2018-05-29T07:52:16.028Z,66.40
2018-05-29T07:54:44.407Z,67.70
2018-05-29T07:57:12.863Z,68.00
2018-05-29T07:59:41.279Z,67.60
2018-05-29T08:02:09.671Z,68.70
2018-05-29T08:04:39.607Z,68.50
2018-05-29T08:07:08.775Z,68.70
2018-05-29T08:09:37.174Z,68.70
2018-05-29T08:12:05.639Z,70.80
2018-05-29T08:14:34.020Z,70.60
2018-05-29T08:17:03.245Z,70.80
2018-05-29T08:19:31.683Z,70.70
2018-05-29T08:22:00.865Z,69.90
2018-05-29T08:24:29.292Z,69.90
2018-05-29T08:26:58.508Z,69.80
2018-05-29T08:29:27.764Z,70.40
2018-05-29T08:31:56.152Z,70.50
2018-05-29T08:34:24.594Z,71.00
2018-05-29T08:36:52.978Z,71.40
2018-05-29T08:39:21.442Z,72.10
2018-05-29T08:41:50.629Z,71.10
2018-05-29T08:44:19.068Z,71.20
2018-05-29T08:46:47.450Z,70.70
2018-05-29T08:49:15.928Z,71.30
2018-05-29T08:51:45.127Z,72.90
2018-05-29T08:54:13.508Z,72.20
2018-05-29T08:56:41.980Z,72.60
2018-05-29T08:59:10.376Z,73.70
2018-05-29T09:01:38.770Z,73.70
2018-05-29T09:04:07.361Z,74.40
2018-05-29T09:06:35.673Z,74.20
2018-05-29T09:09:04.135Z,73.60
2018-05-29T09:11:32.611Z,74.40
2018-05-29T09:14:01.905Z,74.70
2018-05-29T09:16:31.061Z,74.80
2018-05-29T09:18:59.501Z,74.90
2018-05-29T09:21:27.930Z,75.10
2018-05-29T09:23:56.309Z,74.20
2018-05-29T09:26:25.563Z,75.70
2018-05-29T09:28:53.944Z,75.90
2018-05-29T09:31:22.389Z,76.70
2018-05-29T09:33:50.808Z,77.10
2018-05-29T09:36:19.211Z,76.10
2018-05-29T09:38:48.125Z,74.40
2018-05-29T09:41:16.585Z,75.60
2018-05-29T09:43:44.980Z,75.70
2018-05-29T09:46:13.378Z,74.60
2018-05-29T09:48:41.808Z,75.40
2018-05-29T09:51:10.192Z,75.70
2018-05-29T09:53:38.560Z,74.30
2018-05-29T09:56:06.996Z,74.40
2018-05-29T09:58:35.408Z,75.20
2018-05-29T10:01:03.822Z,74.80
2018-05-29T10:03:32.268Z,75.60
2018-05-29T10:06:00.700Z,74.10
2018-05-29T10:08:29.096Z,73.70
2018-05-29T10:10:57.526Z,73.70
2018-05-29T10:13:25.938Z,74.50
2018-05-29T10:15:54.325Z,72.30
2018-05-29T10:18:22.793Z,72.50
2018-05-29T10:20:51.984Z,70.50
2018-05-29T10:23:20.446Z,70.40
2018-05-29T10:25:48.910Z,70.00
2018-05-29T10:28:17.388Z,69.20
2018-05-29T10:30:45.771Z,69.80
2018-05-29T10:33:14.200Z,70.30
2018-05-29T10:35:42.584Z,68.20
2018-05-29T10:38:11.773Z,67.80
2018-05-29T10:40:40.208Z,67.80
2018-05-29T10:43:08.600Z,67.40
2018-05-29T10:45:37.008Z,68.50
2018-05-29T10:48:05.469Z,67.60
2018-05-29T10:50:33.865Z,66.30
2018-05-29T10:53:02.285Z,64.70
2018-05-29T10:55:31.480Z,63.10
2018-05-29T10:58:00.660Z,64.30
2018-05-29T11:00:29.841Z,62.90
2018-05-29T11:02:58.300Z,62.90
2018-05-29T11:05:26.692Z,61.10
2018-05-29T11:07:55.124Z,61.90
2018-05-29T11:10:23.601Z,62.30
2018-05-29T11:12:52.018Z,62.60
2018-05-29T11:15:20.390Z,62.50
2018-05-29T11:17:48.836Z,59.70
2018-05-29T11:20:17.261Z,59.50
2018-05-29T11:22:45.652Z,59.50
2018-05-29T11:25:14.124Z,58.80
2018-05-29T11:27:42.536Z,58.60
2018-05-29T11:30:11.001Z,58.80
2018-05-29T11:32:39.440Z,58.10
2018-05-29T11:35:07.836Z,57.90
2018-05-29T11:37:36.236Z,57.40
2018-05-29T11:40:04.676Z,57.10
2018-05-29T11:42:33.096Z,57.00
2018-05-29T11:45:01.492Z,56.40
2018-05-29T11:47:30.720Z,56.50
2018-05-29T11:49:59.880Z,57.10
2018-05-29T11:52:28.280Z,57.10
2018-05-29T11:54:56.754Z,56.70
2018-05-29T11:57:25.126Z,56.20
2018-05-29T11:59:53.516Z,57.50
2018-05-29T12:02:22.025Z,56.80
2018-05-29T12:04:51.172Z,57.20
2018-05-29T12:07:19.548Z,57.20
2018-05-29T12:09:48.013Z,57.30
2018-05-29T12:12:25.056Z,56.90
2018-05-29T12:14:54.262Z,56.30
2018-05-29T12:17:23.440Z,56.70
2018-05-29T12:19:51.824Z,56.80
2018-05-29T12:22:20.289Z,56.70
2018-05-29T12:24:48.683Z,56.50
2018-05-29T12:27:17.083Z,55.90
2018-05-29T12:29:46.279Z,55.80
2018-05-29T12:32:15.436Z,56.40
2018-05-29T12:34:43.837Z,56.40
2018-05-29T12:37:12.269Z,55.40
2018-05-29T12:39:40.792Z,55.80
2018-05-29T12:42:09.977Z,56.00
2018-05-29T12:44:38.412Z,56.00
2018-05-29T12:47:06.810Z,54.60
2018-05-29T12:49:35.217Z,55.40
2018-05-29T12:52:03.664Z,55.20
2018-05-29T12:54:32.080Z,55.00
2018-05-29T12:57:00.467Z,54.20
2018-05-29T12:59:28.944Z,54.10
2018-05-29T13:01:57.345Z,53.10
2018-05-29T13:04:26.519Z,54.10
2018-05-29T13:06:54.959Z,54.10
2018-05-29T13:09:23.324Z,54.60
2018-05-29T13:11:52.455Z,54.90
2018-05-29T13:14:20.886Z,54.80
2018-05-29T13:16:49.254Z,54.70
2018-05-29T13:19:17.629Z,54.20
2018-05-29T13:21:46.072Z,54.20
2018-05-29T13:24:14.497Z,54.60
2018-05-29T13:26:42.893Z,54.90
2018-05-29T13:29:12.087Z,53.80
2018-05-29T13:31:41.315Z,54.00
2018-05-29T13:34:09.871Z,54.00
2018-05-29T13:36:38.286Z,53.20
2018-05-29T13:39:06.660Z,52.90
2018-05-29T13:41:35.019Z,53.60
2018-05-29T13:44:04.196Z,52.60
2018-05-29T13:46:32.565Z,52.60
2018-05-29T13:49:00.932Z,53.10
2018-05-29T13:51:29.367Z,53.20
2018-05-29T13:53:57.743Z,53.30
2018-05-29T13:56:26.115Z,52.50
2018-05-29T13:58:54.579Z,51.00
2018-05-29T14:01:22.947Z,50.50
2018-05-29T14:03:51.326Z,52.90
2018-05-29T14:06:19.758Z,51.60
2018-05-29T14:08:48.130Z,51.70
2018-05-29T14:11:16.511Z,51.90
2018-05-29T14:13:44.947Z,51.80
2018-05-29T14:16:13.331Z,50.40
2018-05-29T14:18:42.509Z,50.90
2018-05-29T14:21:10.926Z,51.40
2018-05-29T14:23:40.125Z,50.50
2018-05-29T14:26:08.487Z,50.50
2018-05-29T14:28:36.903Z,50.00
2018-05-29T14:31:05.282Z,51.00
2018-05-29T14:33:33.652Z,50.40
2018-05-29T14:36:02.111Z,52.00
2018-05-29T14:38:31.296Z,50.00
2018-05-29T14:40:59.642Z,50.10
2018-05-29T14:43:28.052Z,49.20
2018-05-29T14:45:56.425Z,50.80
2018-05-29T14:48:24.805Z,51.50
2018-05-29T14:50:53.240Z,52.00
2018-05-29T14:53:21.600Z,50.90
2018-05-29T14:55:50.743Z,51.10
2018-05-29T14:58:19.149Z,51.20
2018-05-29T15:00:47.841Z,51.70
2018-05-29T15:03:16.263Z,51.50
2018-05-29T15:05:44.685Z,49.80
2018-05-29T15:08:13.051Z,50.70
2018-05-29T15:10:41.409Z,50.00
2018-05-29T15:13:09.823Z,50.20
2018-05-29T15:15:38.213Z,49.40
2018-05-29T15:18:06.595Z,49.60
2018-05-29T15:20:35.087Z,50.70
2018-05-29T15:23:03.475Z,49.10
2018-05-29T15:25:32.628Z,50.30
2018-05-29T15:28:01.109Z,50.40
2018-05-29T15:30:29.509Z,49.80
2018-05-29T15:32:57.884Z,50.00
2018-05-29T15:35:26.321Z,49.90
2018-05-29T15:37:54.689Z,49.50
2018-05-29T15:40:23.079Z,49.30
2018-05-29T15:42:51.497Z,49.90
2018-05-29T15:45:19.876Z,49.50
2018-05-29T15:47:48.255Z,50.00
2018-05-29T15:50:16.719Z,49.80
2018-05-29T15:52:45.099Z,50.30
2018-05-29T15:55:13.484Z,50.20
2018-05-29T15:57:41.928Z,50.20
2018-05-29T16:00:10.291Z,50.70
2018-05-29T16:02:38.696Z,51.40
2018-05-29T16:05:07.131Z,51.60
2018-05-29T16:07:35.507Z,51.30
2018-05-29T16:10:03.919Z,51.30
2018-05-29T16:12:32.331Z,52.30
2018-05-29T16:15:00.736Z,50.80
2018-05-29T16:17:29.145Z,50.10
2018-05-29T16:19:59.225Z,50.80
2018-05-29T16:22:27.593Z,50.80
2018-05-29T16:24:55.949Z,50.30
2018-05-29T16:27:24.369Z,51.40
2018-05-29T16:29:52.760Z,51.10
2018-05-29T16:32:21.123Z,51.30
2018-05-29T16:34:49.546Z,50.90
2018-05-29T16:37:18.685Z,51.00
2018-05-29T16:39:47.054Z,51.00
2018-05-29T16:42:15.466Z,51.50
2018-05-29T16:44:43.843Z,51.40
2018-05-29T16:47:12.221Z,51.50
2018-05-29T16:49:40.648Z,51.20
2018-05-29T16:52:09.027Z,51.50
2018-05-29T16:54:37.469Z,50.60
2018-05-29T16:57:05.895Z,51.50
2018-05-29T16:59:34.327Z,50.80
2018-05-29T17:02:02.731Z,51.40
2018-05-29T17:04:31.901Z,51.60
2018-05-29T17:07:00.277Z,51.60
2018-05-29T17:09:28.658Z,52.40
2018-05-29T17:11:57.080Z,50.80
2018-05-29T17:14:26.250Z,51.00
2018-05-29T17:16:54.630Z,51.00
2018-05-29T17:19:23.049Z,50.60
2018-05-29T17:21:51.456Z,52.50
2018-05-29T17:24:19.797Z,53.00
2018-05-29T17:26:48.211Z,54.00
2018-05-29T17:29:16.617Z,54.40
2018-05-29T17:31:44.999Z,53.80
2018-05-29T17:34:13.426Z,53.40
2018-05-29T17:36:41.804Z,53.50
2018-05-29T17:39:10.241Z,52.70
2018-05-29T17:41:38.659Z,53.40
2018-05-29T17:44:07.027Z,54.20
2018-05-29T17:46:36.201Z,53.80
2018-05-29T17:49:04.559Z,53.90
2018-05-29T17:51:32.915Z,54.20
2018-05-29T17:54:01.379Z,54.30
2018-05-29T17:56:30.489Z,54.30
2018-05-29T17:58:58.859Z,54.30
2018-05-29T18:01:27.310Z,54.40
2018-05-29T18:03:56.439Z,54.80
2018-05-29T18:06:24.806Z,54.90
2018-05-29T18:08:53.235Z,54.90
2018-05-29T18:11:21.599Z,54.20
2018-05-29T18:13:49.975Z,55.00
2018-05-29T18:16:18.417Z,54.90
2018-05-29T18:18:46.793Z,54.90
2018-05-29T18:21:15.155Z,54.90
2018-05-29T18:23:44.353Z,54.90
2018-05-29T18:26:13.488Z,55.20
2018-05-29T18:28:41.865Z,55.10
2018-05-29T18:31:10.315Z,55.20
2018-05-29T18:33:39.469Z,55.40
2018-05-29T18:36:07.837Z,55.40
2018-05-29T18:38:36.250Z,55.40
2018-05-29T18:41:04.603Z,55.70
2018-05-29T18:43:32.994Z,55.80
2018-05-29T18:46:01.451Z,55.90
2018-05-29T18:48:30.073Z,56.40
2018-05-29T18:50:58.451Z,56.80
2018-05-29T18:53:26.926Z,58.20
2018-05-29T18:55:55.293Z,59.10
2018-05-29T18:58:23.651Z,59.10
2018-05-29T19:00:53.028Z,59.30
2018-05-29T19:03:22.186Z,57.30
2018-05-29T19:05:50.566Z,57.30
2018-05-29T19:08:18.980Z,58.70
2018-05-29T19:10:48.112Z,59.90
2018-05-29T19:13:16.472Z,59.90
2018-05-29T19:15:44.980Z,60.90
2018-05-29T19:18:13.361Z,62.20
2018-05-29T19:20:41.844Z,61.80
2018-05-29T19:23:10.342Z,62.50
2018-05-29T19:25:38.676Z,62.80
2018-05-29T19:28:07.055Z,64.90
2018-05-29T19:30:35.469Z,63.20
2018-05-29T19:33:03.860Z,64.30
2018-05-29T19:35:32.239Z,64.00
2018-05-29T19:38:00.679Z,63.70
2018-05-29T19:40:29.828Z,64.20
2018-05-29T19:42:58.199Z,64.10
2018-05-29T19:45:26.603Z,64.20
2018-05-29T19:47:55.751Z,65.70
2018-05-29T19:50:24.121Z,65.70
2018-05-29T19:52:53.293Z,63.90
2018-05-29T19:55:21.675Z,63.80
2018-05-29T19:57:50.064Z,63.80
2018-05-29T20:00:18.492Z,63.60
2018-05-29T20:02:46.884Z,63.50
2018-05-29T20:05:16.043Z,62.90
2018-05-29T20:07:44.536Z,62.90
2018-05-29T20:10:12.921Z,63.20
2018-05-29T20:12:41.311Z,62.70
2018-05-29T20:15:10.520Z,64.00
2018-05-29T20:17:39.663Z,63.70
2018-05-29T20:20:08.141Z,63.70
2018-05-29T20:22:36.547Z,64.00
2018-05-29T20:25:04.927Z,65.60
2018-05-29T20:27:33.303Z,65.10
2018-05-29T20:30:01.739Z,65.00
2018-05-29T20:32:30.150Z,65.40
2018-05-29T20:34:58.563Z,65.60
2018-05-29T20:37:26.979Z,65.80
2018-05-29T20:39:55.363Z,66.10
2018-05-29T20:42:23.729Z,65.70
2018-05-29T20:44:52.160Z,66.50
2018-05-29T20:47:20.565Z,66.70
2018-05-29T20:49:48.953Z,67.10
2018-05-29T20:52:19.167Z,67.30
2018-05-29T20:54:47.547Z,67.30
2018-05-29T20:57:16.019Z,67.70
2018-05-29T20:59:45.389Z,66.90
2018-05-29T21:02:13.795Z,67.00
2018-05-29T21:04:42.192Z,67.30
2018-05-29T21:07:10.607Z,67.10
2018-05-29T21:09:38.975Z,67.60
2018-05-29T21:12:07.345Z,68.30
2018-05-29T21:14:36.555Z,68.50
2018-05-29T21:17:04.919Z,68.30
2018-05-29T21:19:34.047Z,69.30
2018-05-29T21:22:02.481Z,69.30
2018-05-29T21:24:30.888Z,69.80
2018-05-29T21:26:59.259Z,70.10
2018-05-29T21:29:28.459Z,70.30
2018-05-29T21:31:57.627Z,70.40
2018-05-29T21:34:26.001Z,71.20
2018-05-29T21:36:54.444Z,70.90
2018-05-29T21:39:22.840Z,70.50
2018-05-29T21:41:51.241Z,71.40
2018-05-29T21:44:19.669Z,71.00
2018-05-29T21:46:48.044Z,71.40
2018-05-29T21:49:16.412Z,71.40
2018-05-29T21:51:45.649Z,72.20
2018-05-29T21:54:14.039Z,72.20
2018-05-29T21:56:42.420Z,72.70
2018-05-29T21:59:10.847Z,72.70
2018-05-29T22:01:40.017Z,72.50
2018-05-29T22:04:08.409Z,72.60
2018-05-29T22:06:36.822Z,73.10
2018-05-29T22:09:06.002Z,73.50
2018-05-29T22:11:35.170Z,73.10
2018-05-29T22:14:03.596Z,73.20
2018-05-29T22:16:32.056Z,73.40
2018-05-29T22:19:01.216Z,72.80
2018-05-29T22:21:29.637Z,72.80
2018-05-29T22:23:58.801Z,73.20
2018-05-29T22:26:27.195Z,73.20
2018-05-29T22:28:55.612Z,73.60
2018-05-29T22:31:23.976Z,73.90
2018-05-29T22:33:53.142Z,73.70
2018-05-29T22:36:21.596Z,73.70
2018-05-29T22:38:50.002Z,73.40
2018-05-29T22:41:18.375Z,73.40
2018-05-29T22:43:47.620Z,73.80
2018-05-29T22:46:16.032Z,73.10
2018-05-29T22:48:44.404Z,73.20
2018-05-29T22:51:12.849Z,72.80
2018-05-29T22:53:42.044Z,72.00
2018-05-29T22:56:11.176Z,71.30
2018-05-29T22:58:39.608Z,71.30
2018-05-29T23:01:07.983Z,71.20
2018-05-29T23:03:37.144Z,70.90
2018-05-29T23:06:05.608Z,71.00
2018-05-29T23:08:34.029Z,70.90
2018-05-29T23:11:02.469Z,70.20
2018-05-29T23:13:30.940Z,71.20
2018-05-29T23:15:59.350Z,71.20
2018-05-29T23:18:27.749Z,72.20
2018-05-29T23:20:56.967Z,69.40
2018-05-29T23:23:26.127Z,69.00
2018-05-29T23:25:54.531Z,69.10
2018-05-29T23:28:22.956Z,69.10
2018-05-29T23:30:51.344Z,67.70
2018-05-29T23:33:19.731Z,66.70
2018-05-29T23:35:48.171Z,66.90
2018-05-29T23:38:16.607Z,66.90
2018-05-29T23:40:45.000Z,65.70
2018-05-29T23:43:14.244Z,65.60
2018-05-29T23:45:42.695Z,65.60
2018-05-29T23:48:11.852Z,66.50
2018-05-29T23:50:40.307Z,66.50
2018-05-29T23:53:08.698Z,66.70
2018-05-29T23:55:37.111Z,67.90
2018-05-29T23:58:05.540Z,68.00
